Terminal Aerodrome Forecast
Issued by NWS Mt. Holly, NJ

Home | Current Version | Previous Version | Text Only | Print | Product List | Glossary On
Versions: 1 2 3 4 5 6 7 8 9 10 11 12 13 14 15 16 17 18 19 20
116
FTUS41 KPHI 282333
TAFILG
TAF
KILG 282333Z 2900/2924 18010KT P6SM SCT250
     FM290300 16005KT P6SM SCT150 BKN250
     FM291000 22008KT 4SM SHRA VCTS BKN015CB
     FM291500 26013KT P6SM BKN050
     FM292000 26012G18KT P6SM SCT050 BKN150
     FM292300 28009KT P6SM BKN150=

USA.gov is the U.S. government's official web portal to all federal, state and local government web resources and services.